createdAt,value
2022-12-20T00:01:25.279Z,112.55
2022-12-20T00:03:54.163Z,129.75
2022-12-20T00:06:22.696Z,132.70
2022-12-20T00:08:54.700Z,120.35
2022-12-20T00:11:21.952Z,146.82
2022-12-20T00:13:49.562Z,139.15
2022-12-20T00:16:20.267Z,132.85
2022-12-20T00:18:51.109Z,138.57
2022-12-20T00:21:18.452Z,115.72
2022-12-20T00:23:45.738Z,111.45
2022-12-20T00:26:16.226Z,123.70
2022-12-20T00:28:45.689Z,132.00
2022-12-20T00:31:15.750Z,105.30
2022-12-20T00:36:13.665Z,95.53
2022-12-20T00:38:41.050Z,114.47
2022-12-20T00:41:14.469Z,120.07
2022-12-20T00:43:42.511Z,112.28
2022-12-20T00:46:12.539Z,100.07
2022-12-20T00:48:40.060Z,98.18
2022-12-20T00:51:12.195Z,104.68
2022-12-20T00:53:40.266Z,101.78
2022-12-20T00:56:08.545Z,115.03
2022-12-20T00:58:38.254Z,104.13
2022-12-20T01:01:07.291Z,105.43
2022-12-20T01:03:34.966Z,89.88
2022-12-20T01:06:03.619Z,87.50
2022-12-20T01:08:32.014Z,78.57
2022-12-20T01:11:01.519Z,76.28
2022-12-20T01:13:29.024Z,91.38
2022-12-20T01:15:56.781Z,89.15
2022-12-20T01:18:24.053Z,88.95
2022-12-20T01:21:01.678Z,90.57
2022-12-20T01:23:29.160Z,89.55
2022-12-20T01:25:59.088Z,88.28
2022-12-20T01:28:26.672Z,79.05
2022-12-20T01:30:54.246Z,90.72
2022-12-20T01:33:22.056Z,93.28
2022-12-20T01:35:59.857Z,84.80
2022-12-20T01:38:28.001Z,77.47
2022-12-20T01:40:57.717Z,83.90
2022-12-20T01:43:27.493Z,80.70
2022-12-20T01:45:54.887Z,80.30
2022-12-20T01:48:26.518Z,74.97
2022-12-20T01:50:54.153Z,77.97
2022-12-20T01:53:24.893Z,81.30
2022-12-20T01:55:52.787Z,84.05
2022-12-20T01:58:22.013Z,77.05
2022-12-20T02:00:49.660Z,79.50
2022-12-20T02:03:17.353Z,77.65
2022-12-20T02:05:47.225Z,71.95
2022-12-20T02:08:18.685Z,80.88
2022-12-20T02:11:20.386Z,72.40
2022-12-20T02:14:32.997Z,78.32
2022-12-20T02:17:14.820Z,75.07
2022-12-20T02:20:00.452Z,76.43
2022-12-20T02:22:52.851Z,73.43
2022-12-20T02:25:31.918Z,67.45
2022-12-20T02:28:19.161Z,67.38
2022-12-20T02:30:49.499Z,70.55
2022-12-20T02:33:18.442Z,71.85
2022-12-20T02:35:45.968Z,68.95
2022-12-20T02:38:34.309Z,65.93
2022-12-20T02:41:30.378Z,66.15
2022-12-20T02:44:25.658Z,66.32
2022-12-20T02:46:54.505Z,64.20
2022-12-20T02:51:56.523Z,63.17
2022-12-20T02:54:24.774Z,73.88
2022-12-20T02:57:09.443Z,63.63
2022-12-20T02:59:43.970Z,67.82
2022-12-20T03:02:13.047Z,59.65
2022-12-20T03:04:42.419Z,66.30
2022-12-20T03:07:13.867Z,59.60
2022-12-20T03:09:44.355Z,57.08
2022-12-20T03:12:14.415Z,66.38
2022-12-20T03:14:42.481Z,60.42
2022-12-20T03:17:11.402Z,58.83
2022-12-20T03:19:38.824Z,59.60
2022-12-20T03:22:06.418Z,58.65
2022-12-20T03:24:34.119Z,54.80
2022-12-20T03:27:02.329Z,56.95
2022-12-20T03:29:29.672Z,60.40
2022-12-20T03:31:57.064Z,62.15
2022-12-20T03:34:24.709Z,55.60
2022-12-20T03:36:51.993Z,52.97
2022-12-20T03:39:19.385Z,59.00
2022-12-20T03:41:46.769Z,61.45
2022-12-20T03:44:18.362Z,55.67
2022-12-20T03:46:45.721Z,49.58
2022-12-20T03:49:13.060Z,56.03
2022-12-20T03:51:46.089Z,59.95
2022-12-20T03:54:13.799Z,52.05
2022-12-20T03:57:04.324Z,48.97
2022-12-20T03:59:32.221Z,55.00
2022-12-20T04:02:00.833Z,51.80
2022-12-20T04:04:30.245Z,50.40
2022-12-20T04:06:57.607Z,55.92
2022-12-20T04:09:25.377Z,53.35
2022-12-20T04:11:58.413Z,53.90
2022-12-20T04:14:27.303Z,51.30
2022-12-20T04:16:54.724Z,49.40
2022-12-20T04:19:23.671Z,47.67
2022-12-20T04:21:51.173Z,47.60
2022-12-20T04:24:20.204Z,48.13
2022-12-20T04:27:09.094Z,52.67
2022-12-20T04:29:36.700Z,49.15
2022-12-20T04:32:06.030Z,46.10
2022-12-20T04:34:33.423Z,51.65
2022-12-20T04:37:00.731Z,50.67
2022-12-20T04:39:38.669Z,48.17
2022-12-20T04:42:24.983Z,47.50
2022-12-20T04:44:53.905Z,47.30
2022-12-20T04:47:24.955Z,49.80
2022-12-20T04:49:53.569Z,40.30
2022-12-20T04:52:45.526Z,42.15
2022-12-20T04:55:15.174Z,48.08
2022-12-20T04:57:42.519Z,44.78
2022-12-20T05:00:11.021Z,46.35
2022-12-20T05:02:43.336Z,45.95
2022-12-20T05:05:14.490Z,45.53
2022-12-20T05:07:47.923Z,48.30
2022-12-20T05:10:15.657Z,50.75
2022-12-20T05:12:44.924Z,43.17
2022-12-20T05:15:19.902Z,41.72
2022-12-20T05:17:47.354Z,39.90
2022-12-20T05:20:14.885Z,41.00
2022-12-20T05:25:48.979Z,40.38
2022-12-20T05:28:17.240Z,39.92
2022-12-20T05:30:45.810Z,37.35
2022-12-20T05:33:14.371Z,39.47
2022-12-20T05:35:44.800Z,40.92
2022-12-20T05:38:14.971Z,40.05
2022-12-20T05:40:43.448Z,38.53
2022-12-20T05:43:12.815Z,41.15
2022-12-20T05:45:48.421Z,39.40
2022-12-20T05:48:24.110Z,40.50
2022-12-20T05:50:53.159Z,37.58
2022-12-20T05:53:27.124Z,43.60
2022-12-20T05:55:58.578Z,41.97
2022-12-20T05:58:35.585Z,41.53
2022-12-20T06:01:08.266Z,41.67
2022-12-20T06:03:39.739Z,40.05
2022-12-20T06:06:14.647Z,40.08
2022-12-20T06:08:44.833Z,41.03
2022-12-20T06:11:17.769Z,38.97
2022-12-20T06:13:53.382Z,39.35
2022-12-20T06:16:23.329Z,43.58
2022-12-20T06:18:53.675Z,40.22
2022-12-20T06:21:21.902Z,42.42
2022-12-20T06:23:49.867Z,42.15
2022-12-20T06:26:19.315Z,38.15
2022-12-20T06:28:54.853Z,41.03
2022-12-20T06:31:26.397Z,40.13
2022-12-20T06:33:55.363Z,42.25
2022-12-20T06:36:25.499Z,39.83
2022-12-20T06:38:53.424Z,39.85
2022-12-20T06:41:21.185Z,39.58
2022-12-20T06:43:48.544Z,39.47
2022-12-20T06:46:15.863Z,41.90
2022-12-20T06:48:44.679Z,39.28
2022-12-20T06:51:13.051Z,37.33
2022-12-20T06:53:40.653Z,41.78
2022-12-20T06:56:08.002Z,41.50
2022-12-20T06:58:35.231Z,40.50
2022-12-20T07:01:02.835Z,35.63
2022-12-20T07:03:30.350Z,38.78
2022-12-20T07:05:57.654Z,40.05
2022-12-20T07:08:26.452Z,39.10
2022-12-20T07:10:54.773Z,39.92
2022-12-20T07:13:22.153Z,36.97
2022-12-20T07:15:49.584Z,40.03
2022-12-20T07:18:16.859Z,37.08
2022-12-20T07:20:44.209Z,39.55
2022-12-20T07:23:11.526Z,38.95
2022-12-20T07:25:38.871Z,37.85
2022-12-20T07:28:06.382Z,40.05
2022-12-20T07:30:33.581Z,36.35
2022-12-20T07:33:01.064Z,37.35
2022-12-20T07:35:28.520Z,40.58
2022-12-20T07:37:55.855Z,40.35
2022-12-20T07:40:23.103Z,41.28
2022-12-20T07:42:50.382Z,40.50
2022-12-20T07:45:19.199Z,40.30
2022-12-20T07:47:46.678Z,34.40
2022-12-20T07:50:14.438Z,36.10
2022-12-20T07:52:46.757Z,37.70
2022-12-20T07:55:15.481Z,37.10
2022-12-20T07:57:49.817Z,41.95
2022-12-20T08:00:19.242Z,37.65
2022-12-20T08:02:55.312Z,37.45
2022-12-20T08:05:23.465Z,39.88
2022-12-20T08:07:58.457Z,40.08
2022-12-20T08:10:27.905Z,38.92
2022-12-20T08:12:55.961Z,39.45
2022-12-20T08:15:23.875Z,38.30
2022-12-20T08:17:51.459Z,39.63
2022-12-20T08:20:18.768Z,40.28
2022-12-20T08:22:45.966Z,37.25
2022-12-20T08:25:13.583Z,39.70
2022-12-20T08:27:40.781Z,40.70
2022-12-20T08:30:10.834Z,38.90
2022-12-20T08:32:38.283Z,38.65
2022-12-20T08:35:06.477Z,38.15
2022-12-20T08:37:34.494Z,40.28
2022-12-20T08:40:02.394Z,39.17
2022-12-20T08:42:30.721Z,36.70
2022-12-20T08:44:58.028Z,36.72
2022-12-20T08:47:25.464Z,39.78
2022-12-20T08:49:52.778Z,41.58
2022-12-20T08:52:20.022Z,40.25
2022-12-20T08:54:47.546Z,37.92
2022-12-20T08:57:14.968Z,37.28
2022-12-20T08:59:42.415Z,39.67
2022-12-20T09:02:09.870Z,40.55
2022-12-20T09:04:37.313Z,36.05
2022-12-20T09:07:04.713Z,39.90
2022-12-20T09:09:32.134Z,38.53
2022-12-20T09:11:59.754Z,36.40
2022-12-20T09:14:27.012Z,38.60
2022-12-20T09:16:54.372Z,36.28
2022-12-20T09:19:22.050Z,37.28
2022-12-20T09:21:49.920Z,44.58
2022-12-20T09:24:18.003Z,38.88
2022-12-20T09:26:45.847Z,41.50
2022-12-20T09:29:25.017Z,38.13
2022-12-20T09:31:54.861Z,37.58
2022-12-20T09:34:21.981Z,36.22
2022-12-20T09:36:49.398Z,39.13
2022-12-20T09:39:16.822Z,37.20
2022-12-20T09:41:45.249Z,40.53
2022-12-20T09:44:34.884Z,39.58
2022-12-20T09:47:10.714Z,39.70
2022-12-20T09:49:42.295Z,39.90
2022-12-20T09:52:31.207Z,40.42
2022-12-20T09:55:13.985Z,44.53
2022-12-20T09:58:02.085Z,39.30
2022-12-20T10:00:30.932Z,37.60
2022-12-20T10:03:08.612Z,35.30
2022-12-20T10:05:49.947Z,38.30
2022-12-20T10:08:26.099Z,39.53
2022-12-20T10:11:09.079Z,38.75
2022-12-20T10:14:11.799Z,34.97
2022-12-20T10:16:58.867Z,40.10
2022-12-20T10:20:01.401Z,40.17
2022-12-20T10:22:50.174Z,40.33
2022-12-20T10:25:25.549Z,40.13
2022-12-20T10:27:57.365Z,47.25
2022-12-20T10:30:27.454Z,40.88
2022-12-20T10:35:31.857Z,38.15
2022-12-20T10:38:09.105Z,39.00
2022-12-20T10:41:19.546Z,39.58
2022-12-20T10:44:06.857Z,43.70
2022-12-20T10:46:47.939Z,39.42
2022-12-20T10:49:35.529Z,44.50
2022-12-20T10:52:09.491Z,40.67
2022-12-20T10:54:40.123Z,41.53
2022-12-20T10:57:17.149Z,40.28
2022-12-20T11:00:01.744Z,39.90
2022-12-20T11:02:41.512Z,42.45
2022-12-20T11:05:10.884Z,38.88
2022-12-20T11:08:24.703Z,40.28
2022-12-20T11:10:40.066Z,39.88
2022-12-20T11:13:19.752Z,41.03
2022-12-20T11:15:54.958Z,40.33
2022-12-20T11:18:37.109Z,43.00
2022-12-20T11:21:28.081Z,45.83
2022-12-20T11:24:33.028Z,44.17
2022-12-20T11:27:37.786Z,42.72
2022-12-20T11:30:24.699Z,45.45
2022-12-20T11:33:30.513Z,51.40
2022-12-20T11:36:11.206Z,48.60
2022-12-20T11:38:45.738Z,46.35
2022-12-20T11:41:39.173Z,44.88
2022-12-20T11:44:26.643Z,46.47
2022-12-20T11:47:27.016Z,44.22
2022-12-20T11:50:35.747Z,51.10
2022-12-20T11:53:12.413Z,44.60
2022-12-20T11:55:46.325Z,48.13
2022-12-20T11:58:19.063Z,45.65
2022-12-20T12:00:53.393Z,41.60
2022-12-20T12:03:28.780Z,42.75
2022-12-20T12:06:32.127Z,46.80
2022-12-20T12:09:24.527Z,45.53
2022-12-20T12:12:09.686Z,49.22
2022-12-20T12:14:46.420Z,42.25
2022-12-20T12:17:22.158Z,45.65
2022-12-20T12:19:51.388Z,47.28
2022-12-20T12:22:28.745Z,45.50
2022-12-20T12:25:00.281Z,41.20
2022-12-20T12:27:28.792Z,41.60
2022-12-20T12:29:58.893Z,43.28
2022-12-20T12:35:33.054Z,44.05
2022-12-20T12:38:18.783Z,47.80
2022-12-20T12:40:55.031Z,43.50
2022-12-20T12:44:15.938Z,47.08
2022-12-20T12:46:43.873Z,47.17
2022-12-20T12:49:18.903Z,45.45
2022-12-20T12:51:59.910Z,45.42
2022-12-20T12:54:31.102Z,46.17
2022-12-20T12:57:12.939Z,45.47
2022-12-20T12:59:41.966Z,47.30
2022-12-20T13:02:15.826Z,43.70
2022-12-20T13:05:01.495Z,48.55
2022-12-20T13:07:35.520Z,45.45
2022-12-20T13:10:25.693Z,45.40
2022-12-20T13:12:53.025Z,51.28
2022-12-20T13:15:20.528Z,49.47
2022-12-20T13:18:23.084Z,48.10
2022-12-20T13:21:28.679Z,46.97
2022-12-20T13:24:50.992Z,46.50
2022-12-20T13:27:40.630Z,45.65
2022-12-20T13:30:07.956Z,49.63
2022-12-20T13:33:17.810Z,47.35
2022-12-20T13:35:55.762Z,50.25
2022-12-20T13:38:57.151Z,49.83
2022-12-20T13:41:45.808Z,51.05
2022-12-20T13:44:15.990Z,52.75
2022-12-20T13:49:27.124Z,46.72
2022-12-20T13:52:12.379Z,50.22
2022-12-20T13:54:49.105Z,51.13
2022-12-20T13:57:44.085Z,52.20
2022-12-20T14:00:23.217Z,53.63
2022-12-20T14:02:50.914Z,52.45
2022-12-20T14:05:27.203Z,46.72
2022-12-20T14:08:04.193Z,49.35
2022-12-20T14:10:33.927Z,53.67
2022-12-20T14:13:01.952Z,49.58
2022-12-20T14:15:35.031Z,54.45
2022-12-20T14:18:18.195Z,51.70
2022-12-20T14:20:51.671Z,54.03
2022-12-20T14:23:22.971Z,51.97
2022-12-20T14:25:58.715Z,51.53
2022-12-20T14:28:50.392Z,52.13
2022-12-20T14:31:23.507Z,56.08
2022-12-20T14:33:52.223Z,50.67
2022-12-20T14:36:21.631Z,54.15
2022-12-20T14:38:52.926Z,52.70
2022-12-20T14:41:46.446Z,52.53
2022-12-20T14:44:18.206Z,51.63
2022-12-20T14:46:57.364Z,50.25
2022-12-20T14:49:48.736Z,54.50
2022-12-20T14:52:16.224Z,53.67
2022-12-20T14:55:08.822Z,52.90
2022-12-20T14:57:37.114Z,54.33
2022-12-20T15:00:19.281Z,51.83
2022-12-20T15:02:56.445Z,52.35
2022-12-20T15:05:36.209Z,53.50
2022-12-20T15:08:27.565Z,48.72
2022-12-20T15:11:03.920Z,58.58
2022-12-20T15:13:34.846Z,52.40
2022-12-20T15:16:14.157Z,54.97
2022-12-20T15:18:41.785Z,52.42
2022-12-20T15:21:30.399Z,52.90
2022-12-20T15:24:00.497Z,56.13
2022-12-20T15:26:29.207Z,55.40
2022-12-20T15:28:56.681Z,55.42
2022-12-20T15:31:32.458Z,53.35
2022-12-20T15:34:02.694Z,60.17
2022-12-20T15:36:30.637Z,62.90
2022-12-20T15:39:15.231Z,56.65
2022-12-20T15:41:47.601Z,53.22
2022-12-20T15:44:26.022Z,54.88
2022-12-20T15:46:53.761Z,51.13
2022-12-20T15:49:23.910Z,56.70
2022-12-20T15:51:53.492Z,50.97
2022-12-20T15:54:30.659Z,51.80
2022-12-20T15:57:03.249Z,56.78
2022-12-20T16:02:25.263Z,54.28
2022-12-20T16:04:54.221Z,55.10
2022-12-20T16:07:22.592Z,51.50
2022-12-20T16:09:50.127Z,49.80
2022-12-20T16:12:23.041Z,53.10
2022-12-20T16:14:50.453Z,55.72
2022-12-20T16:17:17.882Z,58.80
2022-12-20T16:19:45.200Z,54.50
2022-12-20T16:22:22.614Z,56.17
2022-12-20T16:24:50.188Z,52.08
2022-12-20T16:27:17.675Z,54.08
2022-12-20T16:29:45.752Z,53.30
2022-12-20T16:32:18.519Z,53.72
2022-12-20T16:34:46.388Z,53.95
2022-12-20T16:37:14.273Z,55.15
2022-12-20T16:39:42.642Z,50.45
2022-12-20T16:42:23.232Z,56.45
2022-12-20T16:44:54.490Z,50.92
2022-12-20T16:47:22.463Z,51.90
2022-12-20T16:49:53.344Z,53.72
2022-12-20T16:52:23.039Z,48.83
2022-12-20T16:54:51.646Z,48.83
2022-12-20T16:57:19.485Z,52.17
2022-12-20T16:59:46.912Z,50.03
2022-12-20T17:02:29.419Z,46.45
2022-12-20T17:04:57.613Z,49.47
2022-12-20T17:07:25.393Z,48.40
2022-12-20T17:10:11.551Z,46.20
2022-12-20T17:12:39.110Z,45.83
2022-12-20T17:15:07.173Z,48.88
2022-12-20T17:17:34.682Z,50.67
2022-12-20T17:20:01.965Z,52.55
2022-12-20T17:22:29.542Z,47.58
2022-12-20T17:24:57.280Z,55.15
2022-12-20T17:27:25.159Z,55.10
2022-12-20T17:29:52.474Z,55.42
2022-12-20T17:32:25.852Z,51.28
2022-12-20T17:34:53.872Z,54.35
2022-12-20T17:37:21.765Z,52.40
2022-12-20T17:39:49.491Z,58.33
2022-12-20T17:42:17.272Z,54.42
2022-12-20T17:44:46.555Z,53.97
2022-12-20T17:47:14.190Z,50.80
2022-12-20T17:49:41.474Z,51.65
2022-12-20T17:52:15.984Z,50.45
2022-12-20T17:54:43.809Z,54.55
2022-12-20T17:57:17.449Z,54.65
2022-12-20T17:59:44.899Z,49.85
2022-12-20T18:02:30.556Z,54.40
2022-12-20T18:04:58.133Z,53.45
2022-12-20T18:07:25.697Z,58.97
2022-12-20T18:09:53.057Z,56.50
2022-12-20T18:12:20.668Z,57.95
2022-12-20T18:14:51.649Z,54.42
2022-12-20T18:17:19.122Z,53.33
2022-12-20T18:19:46.495Z,56.45
2022-12-20T18:22:15.008Z,58.05
2022-12-20T18:24:42.405Z,58.20
2022-12-20T18:27:10.235Z,57.55
2022-12-20T18:29:37.509Z,55.70
2022-12-20T18:32:05.209Z,58.78
2022-12-20T18:34:32.678Z,64.50
2022-12-20T18:37:02.136Z,56.50
2022-12-20T18:39:29.577Z,56.67
2022-12-20T18:41:56.945Z,62.08
2022-12-20T18:44:24.689Z,59.10
2022-12-20T18:46:52.042Z,61.40
2022-12-20T18:49:19.599Z,58.72
2022-12-20T18:51:47.164Z,62.70
2022-12-20T18:54:15.157Z,58.30
2022-12-20T18:56:43.033Z,59.58
2022-12-20T18:59:12.681Z,63.88
2022-12-20T19:01:42.314Z,57.80
2022-12-20T19:04:22.516Z,66.00
2022-12-20T19:06:53.279Z,58.85
2022-12-20T19:09:20.689Z,56.38
2022-12-20T19:11:53.084Z,58.33
2022-12-20T19:14:23.840Z,55.42
2022-12-20T19:16:52.149Z,60.05
2022-12-20T19:19:20.811Z,57.97
2022-12-20T19:21:48.142Z,54.92
2022-12-20T19:24:15.564Z,57.08
2022-12-20T19:26:42.784Z,59.15
2022-12-20T19:29:11.750Z,59.58
2022-12-20T19:31:39.147Z,54.60
2022-12-20T19:34:11.223Z,60.47
2022-12-20T19:36:41.658Z,57.55
2022-12-20T19:39:16.530Z,51.25
2022-12-20T19:41:59.895Z,57.80
2022-12-20T19:44:33.875Z,52.80
2022-12-20T19:47:07.498Z,54.28
2022-12-20T19:49:36.467Z,51.33
2022-12-20T19:52:04.432Z,54.30
2022-12-20T19:54:31.946Z,51.97
2022-12-20T19:56:59.362Z,54.13
2022-12-20T19:59:26.834Z,54.55
2022-12-20T20:01:54.217Z,55.92
2022-12-20T20:04:21.793Z,54.88
2022-12-20T20:06:49.091Z,52.47
2022-12-20T20:09:16.553Z,54.17
2022-12-20T20:11:43.948Z,53.88
2022-12-20T20:14:11.410Z,55.67
2022-12-20T20:16:38.904Z,52.60
2022-12-20T20:19:06.434Z,52.17
2022-12-20T20:21:36.646Z,51.35
2022-12-20T20:26:32.073Z,56.80
2022-12-20T20:29:01.299Z,57.45
2022-12-20T20:31:29.164Z,54.15
2022-12-20T20:33:58.514Z,52.22
2022-12-20T20:36:25.915Z,54.88
2022-12-20T20:38:53.123Z,54.95
2022-12-20T20:41:20.990Z,54.05
2022-12-20T20:43:49.724Z,54.40
2022-12-20T20:46:18.127Z,53.85
2022-12-20T20:48:46.340Z,56.55
2022-12-20T20:51:14.296Z,53.83
2022-12-20T20:53:42.032Z,59.20
2022-12-20T20:56:10.287Z,58.90
2022-12-20T20:58:38.252Z,57.60
2022-12-20T21:01:11.139Z,58.53
2022-12-20T21:03:38.990Z,57.30
2022-12-20T21:06:39.297Z,55.30
2022-12-20T21:08:54.871Z,57.55
2022-12-20T21:11:22.764Z,58.30
2022-12-20T21:13:50.506Z,59.42
2022-12-20T21:16:22.694Z,57.33
2022-12-20T21:18:54.920Z,56.88
2022-12-20T21:21:23.084Z,61.40
2022-12-20T21:23:51.364Z,51.40
2022-12-20T21:26:20.777Z,56.55
2022-12-20T21:28:48.642Z,57.85
2022-12-20T21:31:19.631Z,54.95
2022-12-20T21:33:47.190Z,54.25
2022-12-20T21:36:17.321Z,59.45
2022-12-20T21:38:50.547Z,57.58
2022-12-20T21:41:19.318Z,59.30
2022-12-20T21:43:46.762Z,54.10
2022-12-20T21:46:15.046Z,58.75
2022-12-20T21:48:44.610Z,59.22
2022-12-20T21:51:14.785Z,55.35
2022-12-20T21:56:10.746Z,55.88
2022-12-20T21:58:38.167Z,56.17
2022-12-20T22:01:08.193Z,58.95
2022-12-20T22:06:04.583Z,54.17
2022-12-20T22:08:33.782Z,54.38
2022-12-20T22:11:10.931Z,51.87
2022-12-20T22:13:42.039Z,52.17
2022-12-20T22:16:11.198Z,57.47
2022-12-20T22:18:39.938Z,52.38
2022-12-20T22:21:12.948Z,54.45
2022-12-20T22:23:40.981Z,53.78
2022-12-20T22:26:11.276Z,52.22
2022-12-20T22:28:40.203Z,51.42
2022-12-20T22:31:09.796Z,49.25
2022-12-20T22:33:38.440Z,50.45
2022-12-20T22:36:07.470Z,53.95
2022-12-20T22:38:34.985Z,53.88
2022-12-20T22:41:11.561Z,55.45
2022-12-20T22:43:41.234Z,55.92
2022-12-20T22:46:30.936Z,54.05
2022-12-20T22:48:59.534Z,49.80
2022-12-20T22:51:27.982Z,51.75
2022-12-20T22:53:57.911Z,57.90
2022-12-20T22:56:25.747Z,49.92
2022-12-20T22:58:52.976Z,48.92
2022-12-20T23:01:21.210Z,50.13
2022-12-20T23:03:49.153Z,53.15
2022-12-20T23:06:19.660Z,47.97
2022-12-20T23:08:47.981Z,55.90
2022-12-20T23:11:38.510Z,50.05
2022-12-20T23:14:24.624Z,52.67
2022-12-20T23:16:52.147Z,52.92
2022-12-20T23:19:19.738Z,51.03
2022-12-20T23:22:07.247Z,55.33
2022-12-20T23:24:34.658Z,51.20
2022-12-20T23:27:02.583Z,52.97
2022-12-20T23:29:30.660Z,52.55
2022-12-20T23:31:58.065Z,52.63
2022-12-20T23:34:25.437Z,52.58
2022-12-20T23:36:52.754Z,53.30
2022-12-20T23:39:19.993Z,51.65
2022-12-20T23:41:47.635Z,53.80
2022-12-20T23:44:15.405Z,52.20
2022-12-20T23:46:42.685Z,49.83
2022-12-20T23:49:10.031Z,51.55
2022-12-20T23:51:37.390Z,48.05
2022-12-20T23:54:04.806Z,52.33
2022-12-20T23:56:31.928Z,47.80
2022-12-20T23:59:03.719Z,52.80
